sensor_id;sensor_type;location;lat;lon;timestamp;pressure;altitude;pressure_sealevel;temperature;humidity
23229;BME280;11783;50.350;6.576;2023-05-12T00:02:22;96038.06;;;11.97;100.00
23229;BME280;11783;50.350;6.576;2023-05-12T00:04:48;96044.16;;;11.92;100.00
23229;BME280;11783;50.350;6.576;2023-05-12T00:07:13;96043.06;;;11.88;100.00
23229;BME280;11783;50.350;6.576;2023-05-12T00:09:38;96045.72;;;11.88;100.00
23229;BME280;11783;50.350;6.576;2023-05-12T00:12:06;96044.38;;;11.86;100.00
23229;BME280;11783;50.350;6.576;2023-05-12T00:14:34;96043.56;;;11.85;100.00
23229;BME280;11783;50.350;6.576;2023-05-12T00:16:59;96047.28;;;11.84;100.00
23229;BME280;11783;50.350;6.576;2023-05-12T00:19:24;96043.28;;;11.81;100.00
23229;BME280;11783;50.350;6.576;2023-05-12T00:21:50;96041.94;;;11.79;100.00
23229;BME280;11783;50.350;6.576;2023-05-12T00:24:15;96036.34;;;11.80;100.00
23229;BME280;11783;50.350;6.576;2023-05-12T00:26:40;96033.94;;;11.79;100.00
23229;BME280;11783;50.350;6.576;2023-05-12T00:29:06;96037.63;;;11.78;100.00
23229;BME280;11783;50.350;6.576;2023-05-12T00:31:31;96030.09;;;11.70;100.00
23229;BME280;11783;50.350;6.576;2023-05-12T00:33:57;96038.66;;;11.72;100.00
23229;BME280;11783;50.350;6.576;2023-05-12T00:36:22;96022.88;;;11.65;100.00
23229;BME280;11783;50.350;6.576;2023-05-12T00:38:48;96037.78;;;11.61;100.00
23229;BME280;11783;50.350;6.576;2023-05-12T00:41:13;96031.41;;;11.67;100.00
23229;BME280;11783;50.350;6.576;2023-05-12T00:43:38;96019.44;;;11.65;100.00
23229;BME280;11783;50.350;6.576;2023-05-12T00:46:04;96031.41;;;11.67;100.00
23229;BME280;11783;50.350;6.576;2023-05-12T00:48:31;96027.41;;;11.65;100.00
23229;BME280;11783;50.350;6.576;2023-05-12T00:50:57;96020.47;;;11.64;100.00
23229;BME280;11783;50.350;6.576;2023-05-12T00:53:23;96015.66;;;11.61;100.00
23229;BME280;11783;50.350;6.576;2023-05-12T00:55:49;96021.50;;;11.58;100.00
23229;BME280;11783;50.350;6.576;2023-05-12T00:58:14;96018.59;;;11.59;100.00
23229;BME280;11783;50.350;6.576;2023-05-12T01:00:40;96023.13;;;11.59;100.00
23229;BME280;11783;50.350;6.576;2023-05-12T01:03:05;96017.75;;;11.53;100.00
23229;BME280;11783;50.350;6.576;2023-05-12T01:05:37;96013.72;;;11.51;100.00
23229;BME280;11783;50.350;6.576;2023-05-12T01:08:04;96015.84;;;11.49;100.00
23229;BME280;11783;50.350;6.576;2023-05-12T01:10:30;96006.50;;;11.46;100.00
23229;BME280;11783;50.350;6.576;2023-05-12T01:12:55;96003.00;;;11.41;100.00
23229;BME280;11783;50.350;6.576;2023-05-12T01:15:21;96006.69;;;11.35;100.00
23229;BME280;11783;50.350;6.576;2023-05-12T01:17:52;95989.41;;;11.37;100.00
23229;BME280;11783;50.350;6.576;2023-05-12T01:20:21;95991.00;;;11.38;100.00
23229;BME280;11783;50.350;6.576;2023-05-12T01:22:49;95992.59;;;11.34;100.00
23229;BME280;11783;50.350;6.576;2023-05-12T01:25:14;95995.78;;;11.36;100.00
23229;BME280;11783;50.350;6.576;2023-05-12T01:27:41;95991.53;;;11.35;100.00
23229;BME280;11783;50.350;6.576;2023-05-12T01:30:08;95995.72;;;11.31;100.00
23229;BME280;11783;50.350;6.576;2023-05-12T01:32:37;95987.50;;;11.33;100.00
23229;BME280;11783;50.350;6.576;2023-05-12T01:35:02;95989.59;;;11.31;100.00
23229;BME280;11783;50.350;6.576;2023-05-12T01:37:28;95987.19;;;11.29;100.00
23229;BME280;11783;50.350;6.576;2023-05-12T01:39:53;95978.97;;;11.31;100.00
23229;BME280;11783;50.350;6.576;2023-05-12T01:42:19;95988.06;;;11.35;100.00
23229;BME280;11783;50.350;6.576;2023-05-12T01:44:44;95980.56;;;11.32;100.00
23229;BME280;11783;50.350;6.576;2023-05-12T01:47:10;95975.84;;;11.39;100.00
23229;BME280;11783;50.350;6.576;2023-05-12T01:49:38;95967.06;;;11.38;100.00
23229;BME280;11783;50.350;6.576;2023-05-12T01:52:03;95973.72;;;11.41;100.00
23229;BME280;11783;50.350;6.576;2023-05-12T01:54:29;95982.25;;;11.43;100.00
23229;BME280;11783;50.350;6.576;2023-05-12T01:56:54;95976.66;;;11.39;100.00
23229;BME280;11783;50.350;6.576;2023-05-12T01:59:20;95971.84;;;11.36;100.00
23229;BME280;11783;50.350;6.576;2023-05-12T02:01:45;95977.97;;;11.37;100.00
23229;BME280;11783;50.350;6.576;2023-05-12T02:04:10;95983.53;;;11.35;100.00
23229;BME280;11783;50.350;6.576;2023-05-12T02:06:36;95976.38;;;11.36;100.00
23229;BME280;11783;50.350;6.576;2023-05-12T02:09:01;95974.97;;;11.33;100.00
23229;BME280;11783;50.350;6.576;2023-05-12T02:11:27;95977.06;;;11.26;100.00
23229;BME280;11783;50.350;6.576;2023-05-12T02:13:52;95974.94;;;11.28;100.00
23229;BME280;11783;50.350;6.576;2023-05-12T02:16:18;95966.44;;;11.26;100.00
23229;BME280;11783;50.350;6.576;2023-05-12T02:18:43;95968.53;;;11.24;100.00
23229;BME280;11783;50.350;6.576;2023-05-12T02:21:08;95970.94;;;11.26;100.00
23229;BME280;11783;50.350;6.576;2023-05-12T02:23:34;95971.19;;;11.24;100.00
23229;BME280;11783;50.350;6.576;2023-05-12T02:25:59;95971.16;;;11.19;100.00
23229;BME280;11783;50.350;6.576;2023-05-12T02:28:24;95975.72;;;11.23;100.00
23229;BME280;11783;50.350;6.576;2023-05-12T02:30:50;95968.25;;;11.20;100.00
23229;BME280;11783;50.350;6.576;2023-05-12T02:33:18;95967.16;;;11.16;100.00
23229;BME280;11783;50.350;6.576;2023-05-12T02:35:44;95966.13;;;11.22;100.00
23229;BME280;11783;50.350;6.576;2023-05-12T02:38:10;95966.44;;;11.26;100.00
23229;BME280;11783;50.350;6.576;2023-05-12T02:40:35;95966.94;;;11.23;100.00
23229;BME280;11783;50.350;6.576;2023-05-12T02:43:01;95967.75;;;11.23;100.00
23229;BME280;11783;50.350;6.576;2023-05-12T02:45:26;95965.06;;;11.23;100.00
23229;BME280;11783;50.350;6.576;2023-05-12T02:47:52;95958.69;;;11.25;100.00
23229;BME280;11783;50.350;6.576;2023-05-12T02:50:17;95957.38;;;11.27;100.00
23229;BME280;11783;50.350;6.576;2023-05-12T02:52:43;95959.28;;;11.32;100.00
23229;BME280;11783;50.350;6.576;2023-05-12T02:55:08;95961.66;;;11.28;100.00
23229;BME280;11783;50.350;6.576;2023-05-12T02:57:34;95961.66;;;11.28;100.00
23229;BME280;11783;50.350;6.576;2023-05-12T03:00:00;95963.50;;;11.28;100.00
23229;BME280;11783;50.350;6.576;2023-05-12T03:02:26;95960.34;;;11.31;100.00
23229;BME280;11783;50.350;6.576;2023-05-12T03:04:51;95962.47;;;11.34;100.00
23229;BME280;11783;50.350;6.576;2023-05-12T03:07:17;95960.41;;;11.36;100.00
23229;BME280;11783;50.350;6.576;2023-05-12T03:09:42;95961.69;;;11.33;100.00
23229;BME280;11783;50.350;6.576;2023-05-12T03:12:08;95959.59;;;11.35;100.00
23229;BME280;11783;50.350;6.576;2023-05-12T03:14:33;95961.50;;;11.40;100.00
23229;BME280;11783;50.350;6.576;2023-05-12T03:16:59;95950.59;;;11.41;100.00
23229;BME280;11783;50.350;6.576;2023-05-12T03:19:24;95955.66;;;11.43;100.00
23229;BME280;11783;50.350;6.576;2023-05-12T03:21:49;95956.72;;;11.42;100.00
23229;BME280;11783;50.350;6.576;2023-05-12T03:24:15;95957.25;;;11.44;100.00
23229;BME280;11783;50.350;6.576;2023-05-12T03:26:40;95954.59;;;11.44;100.00
23229;BME280;11783;50.350;6.576;2023-05-12T03:29:06;95953.00;;;11.43;100.00
23229;BME280;11783;50.350;6.576;2023-05-12T03:31:32;95949.53;;;11.42;100.00
23229;BME280;11783;50.350;6.576;2023-05-12T03:33:57;95948.22;;;11.45;100.00
23229;BME280;11783;50.350;6.576;2023-05-12T03:36:27;95950.63;;;11.46;100.00
23229;BME280;11783;50.350;6.576;2023-05-12T03:38:52;95947.66;;;11.43;100.00
23229;BME280;11783;50.350;6.576;2023-05-12T03:41:17;95946.63;;;11.44;100.00
23229;BME280;11783;50.350;6.576;2023-05-12T03:43:43;95940.75;;;11.42;100.00
23229;BME280;11783;50.350;6.576;2023-05-12T03:46:08;95941.28;;;11.44;100.00
23229;BME280;11783;50.350;6.576;2023-05-12T03:48:33;95946.06;;;11.42;100.00
23229;BME280;11783;50.350;6.576;2023-05-12T03:50:59;95948.22;;;11.45;100.00
23229;BME280;11783;50.350;6.576;2023-05-12T03:53:24;95939.16;;;11.46;100.00
23229;BME280;11783;50.350;6.576;2023-05-12T03:55:49;95939.47;;;11.49;100.00
23229;BME280;11783;50.350;6.576;2023-05-12T03:58:15;95939.19;;;11.51;100.00
23229;BME280;11783;50.350;6.576;2023-05-12T04:00:40;95929.63;;;11.50;100.00
23229;BME280;11783;50.350;6.576;2023-05-12T04:03:06;95937.59;;;11.50;100.00
23229;BME280;11783;50.350;6.576;2023-05-12T04:05:31;95937.34;;;11.51;100.00
23229;BME280;11783;50.350;6.576;2023-05-12T04:07:56;95938.13;;;11.47;100.00
23229;BME280;11783;50.350;6.576;2023-05-12T04:10:22;95934.66;;;11.46;100.00
23229;BME280;11783;50.350;6.576;2023-05-12T04:12:47;95939.16;;;11.46;100.00
23229;BME280;11783;50.350;6.576;2023-05-12T04:15:12;95945.59;;;11.50;100.00
23229;BME280;11783;50.350;6.576;2023-05-12T04:17:39;95947.19;;;11.51;100.00
23229;BME280;11783;50.350;6.576;2023-05-12T04:20:05;95942.13;;;11.49;100.00
23229;BME280;11783;50.350;6.576;2023-05-12T04:22:31;95940.81;;;11.52;100.00
23229;BME280;11783;50.350;6.576;2023-05-12T04:24:56;95936.53;;;11.51;100.00
23229;BME280;11783;50.350;6.576;2023-05-12T04:27:22;95939.78;;;11.53;100.00
23229;BME280;11783;50.350;6.576;2023-05-12T04:29:47;95945.31;;;11.51;100.00
23229;BME280;11783;50.350;6.576;2023-05-12T04:32:12;95935.75;;;11.50;100.00
23229;BME280;11783;50.350;6.576;2023-05-12T04:34:38;95943.25;;;11.53;100.00
23229;BME280;11783;50.350;6.576;2023-05-12T04:37:03;95940.06;;;11.57;100.00
23229;BME280;11783;50.350;6.576;2023-05-12T04:39:28;95945.91;;;11.53;100.00
23229;BME280;11783;50.350;6.576;2023-05-12T04:41:54;95940.00;;;11.51;100.00
23229;BME280;11783;50.350;6.576;2023-05-12T04:44:19;95945.91;;;11.53;100.00
23229;BME280;11783;50.350;6.576;2023-05-12T04:46:46;95944.28;;;11.52;100.00
23229;BME280;11783;50.350;6.576;2023-05-12T04:49:11;95953.38;;;11.57;100.00
23229;BME280;11783;50.350;6.576;2023-05-12T04:51:37;95956.56;;;11.59;100.00
23229;BME280;11783;50.350;6.576;2023-05-12T04:54:10;95955.50;;;11.60;100.00
23229;BME280;11783;50.350;6.576;2023-05-12T04:56:35;95961.38;;;11.62;100.00
23229;BME280;11783;50.350;6.576;2023-05-12T04:59:01;95962.19;;;11.62;100.00
23229;BME280;11783;50.350;6.576;2023-05-12T05:01:26;95962.19;;;11.62;100.00
23229;BME280;11783;50.350;6.576;2023-05-12T05:03:52;95966.44;;;11.63;100.00
23229;BME280;11783;50.350;6.576;2023-05-12T05:06:17;95961.91;;;11.64;100.00
23229;BME280;11783;50.350;6.576;2023-05-12T05:08:43;95964.56;;;11.59;100.00
23229;BME280;11783;50.350;6.576;2023-05-12T05:11:08;95973.09;;;11.61;100.00
23229;BME280;11783;50.350;6.576;2023-05-12T05:13:34;95967.19;;;11.53;100.00
23229;BME280;11783;50.350;6.576;2023-05-12T05:15:59;95968.03;;;11.59;100.00
23229;BME280;11783;50.350;6.576;2023-05-12T05:18:25;95970.69;;;11.59;100.00
23229;BME280;11783;50.350;6.576;2023-05-12T05:20:51;95964.03;;;11.62;100.00
23229;BME280;11783;50.350;6.576;2023-05-12T05:23:16;95970.94;;;11.58;100.00
23229;BME280;11783;50.350;6.576;2023-05-12T05:25:41;95969.59;;;11.55;100.00
23229;BME280;11783;50.350;6.576;2023-05-12T05:28:07;95973.59;;;11.58;100.00
23229;BME280;11783;50.350;6.576;2023-05-12T05:30:32;95978.63;;;11.54;100.00
23229;BME280;11783;50.350;6.576;2023-05-12T05:32:58;95974.06;;;11.49;100.00
23229;BME280;11783;50.350;6.576;2023-05-12T05:35:23;95969.84;;;11.53;100.00
23229;BME280;11783;50.350;6.576;2023-05-12T05:37:48;95975.72;;;11.56;100.00
23229;BME280;11783;50.350;6.576;2023-05-12T05:40:17;95978.66;;;11.59;100.00
23229;BME280;11783;50.350;6.576;2023-05-12T05:42:42;95980.28;;;11.60;100.00
23229;BME280;11783;50.350;6.576;2023-05-12T05:45:08;95977.38;;;11.67;100.00
23229;BME280;11783;50.350;6.576;2023-05-12T05:47:33;95982.69;;;11.67;100.00
23229;BME280;11783;50.350;6.576;2023-05-12T05:49:59;95976.91;;;11.75;100.00
23229;BME280;11783;50.350;6.576;2023-05-12T05:52:24;95989.97;;;11.76;100.00
23229;BME280;11783;50.350;6.576;2023-05-12T05:54:50;95991.34;;;11.79;100.00
23229;BME280;11783;50.350;6.576;2023-05-12T05:57:15;95994.28;;;11.82;100.00
23229;BME280;11783;50.350;6.576;2023-05-12T05:59:40;95988.72;;;11.84;100.00
23229;BME280;11783;50.350;6.576;2023-05-12T06:02:06;95989.22;;;11.81;100.00
23229;BME280;11783;50.350;6.576;2023-05-12T06:04:31;95994.03;;;11.84;100.00
23229;BME280;11783;50.350;6.576;2023-05-12T06:06:56;95989.25;;;11.86;100.00
23229;BME280;11783;50.350;6.576;2023-05-12T06:09:22;96002.03;;;11.84;100.00
23229;BME280;11783;50.350;6.576;2023-05-12T06:11:47;96001.78;;;11.86;100.00
23229;BME280;11783;50.350;6.576;2023-05-12T06:14:12;96000.72;;;11.87;100.00
23229;BME280;11783;50.350;6.576;2023-05-12T06:16:38;96002.06;;;11.89;100.00
23229;BME280;11783;50.350;6.576;2023-05-12T06:19:03;95999.97;;;11.91;100.00
23229;BME280;11783;50.350;6.576;2023-05-12T06:21:29;95999.69;;;11.93;100.00
23229;BME280;11783;50.350;6.576;2023-05-12T06:23:54;96005.84;;;11.93;100.00
23229;BME280;11783;50.350;6.576;2023-05-12T06:26:21;96010.38;;;11.98;100.00
23229;BME280;11783;50.350;6.576;2023-05-12T06:28:46;96010.38;;;11.98;100.00
23229;BME280;11783;50.350;6.576;2023-05-12T06:31:12;96011.22;;;12.03;100.00
23229;BME280;11783;50.350;6.576;2023-05-12T06:33:37;96012.56;;;12.06;100.00
23229;BME280;11783;50.350;6.576;2023-05-12T06:36:03;96012.88;;;12.09;100.00
23229;BME280;11783;50.350;6.576;2023-05-12T06:38:28;96015.25;;;12.11;100.00
23229;BME280;11783;50.350;6.576;2023-05-12T06:40:54;96016.28;;;12.05;100.00
23229;BME280;11783;50.350;6.576;2023-05-12T06:43:19;96022.41;;;12.05;100.00
23229;BME280;11783;50.350;6.576;2023-05-12T06:45:44;96023.50;;;12.09;100.00
23229;BME280;11783;50.350;6.576;2023-05-12T06:48:09;96026.91;;;12.00;100.00
23229;BME280;11783;50.350;6.576;2023-05-12T06:50:35;96029.34;;;12.06;100.00
23229;BME280;11783;50.350;6.576;2023-05-12T06:53:01;96025.31;;;11.99;100.00
23229;BME280;11783;50.350;6.576;2023-05-12T06:55:26;96030.91;;;12.02;100.00
23229;BME280;11783;50.350;6.576;2023-05-12T06:57:52;96033.28;;;11.99;100.00
23229;BME280;11783;50.350;6.576;2023-05-12T07:00:24;96026.59;;;11.91;100.00
23229;BME280;11783;50.350;6.576;2023-05-12T07:02:50;96031.13;;;11.91;100.00
23229;BME280;11783;50.350;6.576;2023-05-12T07:05:15;96037.00;;;11.98;100.00
23229;BME280;11783;50.350;6.576;2023-05-12T07:07:43;96040.44;;;11.93;100.00
23229;BME280;11783;50.350;6.576;2023-05-12T07:10:08;96040.75;;;11.97;100.00
23229;BME280;11783;50.350;6.576;2023-05-12T07:12:34;96040.75;;;11.97;100.00
23229;BME280;11783;50.350;6.576;2023-05-12T07:14:59;96040.50;;;12.03;100.00
23229;BME280;11783;50.350;6.576;2023-05-12T07:17:25;96046.97;;;12.12;100.00
23229;BME280;11783;50.350;6.576;2023-05-12T07:19:50;96046.72;;;12.14;100.00
23229;BME280;11783;50.350;6.576;2023-05-12T07:22:16;96052.84;;;12.15;100.00
23229;BME280;11783;50.350;6.576;2023-05-12T07:24:41;96047.78;;;12.18;100.00
23229;BME280;11783;50.350;6.576;2023-05-12T07:27:07;96048.03;;;12.11;100.00
23229;BME280;11783;50.350;6.576;2023-05-12T07:29:33;96052.31;;;12.12;100.00
23229;BME280;11783;50.350;6.576;2023-05-12T07:31:58;96046.72;;;12.14;100.00
23229;BME280;11783;50.350;6.576;2023-05-12T07:34:24;96051.78;;;12.16;100.00
23229;BME280;11783;50.350;6.576;2023-05-12T07:36:49;96054.72;;;12.14;100.00
23229;BME280;11783;50.350;6.576;2023-05-12T07:39:15;96053.38;;;12.11;100.00
23229;BME280;11783;50.350;6.576;2023-05-12T07:41:43;96050.16;;;12.09;100.00
23229;BME280;11783;50.350;6.576;2023-05-12T07:44:09;96057.41;;;12.19;100.00
23229;BME280;11783;50.350;6.576;2023-05-12T07:46:34;96055.00;;;12.18;100.00
23229;BME280;11783;50.350;6.576;2023-05-12T07:49:00;96058.22;;;12.25;100.00
23229;BME280;11783;50.350;6.576;2023-05-12T07:51:26;96063.59;;;12.30;100.00
23229;BME280;11783;50.350;6.576;2023-05-12T07:53:51;96062.28;;;12.32;100.00
23229;BME280;11783;50.350;6.576;2023-05-12T07:56:19;96065.22;;;12.31;100.00
23229;BME280;11783;50.350;6.576;2023-05-12T07:58:47;96062.31;;;12.37;100.00
23229;BME280;11783;50.350;6.576;2023-05-12T08:01:12;96062.88;;;12.44;100.00
23229;BME280;11783;50.350;6.576;2023-05-12T08:03:37;96065.03;;;12.48;100.00
23229;BME280;11783;50.350;6.576;2023-05-12T08:06:03;96068.25;;;12.50;100.00
23229;BME280;11783;50.350;6.576;2023-05-12T08:08:32;96068.53;;;12.53;100.00
23229;BME280;11783;50.350;6.576;2023-05-12T08:10:57;96070.41;;;12.58;100.00
23229;BME280;11783;50.350;6.576;2023-05-12T08:13:22;96067.97;;;12.51;100.00
23229;BME280;11783;50.350;6.576;2023-05-12T08:15:48;96059.47;;;12.59;100.00
23229;BME280;11783;50.350;6.576;2023-05-12T08:18:14;96070.13;;;12.54;100.00
23229;BME280;11783;50.350;6.576;2023-05-12T08:20:40;96072.53;;;12.61;100.00
23229;BME280;11783;50.350;6.576;2023-05-12T08:23:05;96066.41;;;12.60;100.00
23229;BME280;11783;50.350;6.576;2023-05-12T08:25:31;96067.53;;;12.69;100.00
23229;BME280;11783;50.350;6.576;2023-05-12T08:27:59;96065.69;;;12.70;100.00
23229;BME280;11783;50.350;6.576;2023-05-12T08:30:26;96080.59;;;12.66;100.00
23229;BME280;11783;50.350;6.576;2023-05-12T08:32:53;96082.19;;;12.67;100.00
23229;BME280;11783;50.350;6.576;2023-05-12T08:35:19;96082.50;;;12.81;100.00
23229;BME280;11783;50.350;6.576;2023-05-12T08:37:44;96079.06;;;12.85;100.00
23229;BME280;11783;50.350;6.576;2023-05-12T08:40:30;96075.63;;;12.90;100.00
23229;BME280;11783;50.350;6.576;2023-05-12T08:45:45;96093.25;;;12.96;100.00
23229;BME280;11783;50.350;6.576;2023-05-12T08:51:06;96114.47;;;12.70;100.00
23229;BME280;11783;50.350;6.576;2023-05-12T08:53:36;96106.38;;;12.55;100.00
23229;BME280;11783;50.350;6.576;2023-05-12T08:56:05;96114.31;;;12.45;100.00
23229;BME280;11783;50.350;6.576;2023-05-12T08:58:31;96115.38;;;12.44;100.00
23229;BME280;11783;50.350;6.576;2023-05-12T09:00:58;96126.03;;;12.44;100.00
23229;BME280;11783;50.350;6.576;2023-05-12T09:03:26;96120.22;;;12.52;100.00
23229;BME280;11783;50.350;6.576;2023-05-12T09:05:52;96126.41;;;12.63;100.00
23229;BME280;11783;50.350;6.576;2023-05-12T09:08:17;96133.41;;;12.74;100.00
23229;BME280;11783;50.350;6.576;2023-05-12T09:10:43;96129.44;;;12.77;100.00
23229;BME280;11783;50.350;6.576;2023-05-12T09:13:12;96136.66;;;12.81;100.00
23229;BME280;11783;50.350;6.576;2023-05-12T09:15:42;96126.75;;;12.77;100.00
23229;BME280;11783;50.350;6.576;2023-05-12T09:18:08;96129.44;;;12.77;100.00
23229;BME280;11783;50.350;6.576;2023-05-12T09:20:34;96137.22;;;12.88;100.00
23229;BME280;11783;50.350;6.576;2023-05-12T09:23:17;96134.31;;;12.90;100.00
23229;BME280;11783;50.350;6.576;2023-05-12T09:25:43;96139.44;;;13.01;100.00
23229;BME280;11783;50.350;6.576;2023-05-12T09:28:09;96145.22;;;12.88;100.00
23229;BME280;11783;50.350;6.576;2023-05-12T09:30:34;96148.19;;;12.92;100.00
23229;BME280;11783;50.350;6.576;2023-05-12T09:33:09;96144.97;;;12.90;100.00
23229;BME280;11783;50.350;6.576;2023-05-12T09:35:39;96149.53;;;12.99;100.00
23229;BME280;11783;50.350;6.576;2023-05-12T09:38:09;96142.31;;;12.95;100.00
23229;BME280;11783;50.350;6.576;2023-05-12T09:40:35;96148.72;;;12.99;100.00
23229;BME280;11783;50.350;6.576;2023-05-12T09:43:02;96150.38;;;13.05;100.00
23229;BME280;11783;50.350;6.576;2023-05-12T09:45:28;96146.13;;;13.04;100.00
23229;BME280;11783;50.350;6.576;2023-05-12T09:48:06;96154.31;;;12.92;100.00
23229;BME280;11783;50.350;6.576;2023-05-12T09:50:32;96150.59;;;12.93;100.00
23229;BME280;11783;50.350;6.576;2023-05-12T09:52:57;96156.72;;;12.89;100.00
23229;BME280;11783;50.350;6.576;2023-05-12T09:55:23;96148.69;;;12.84;100.00
23229;BME280;11783;50.350;6.576;2023-05-12T09:57:48;96157.00;;;12.97;100.00
23229;BME280;11783;50.350;6.576;2023-05-12T10:00:14;96147.72;;;13.05;100.00
23229;BME280;11783;50.350;6.576;2023-05-12T10:02:43;96152.00;;;13.11;100.00
23229;BME280;11783;50.350;6.576;2023-05-12T10:05:19;96150.16;;;13.17;100.00
23229;BME280;11783;50.350;6.576;2023-05-12T10:07:47;96159.53;;;13.19;100.00
23229;BME280;11783;50.350;6.576;2023-05-12T10:10:17;96150.78;;;13.34;100.00
23229;BME280;11783;50.350;6.576;2023-05-12T10:12:44;96158.25;;;13.37;100.00
23229;BME280;11783;50.350;6.576;2023-05-12T10:15:10;96151.63;;;13.40;100.00
23229;BME280;11783;50.350;6.576;2023-05-12T10:17:38;96151.38;;;13.51;100.00
23229;BME280;11783;50.350;6.576;2023-05-12T10:20:05;96155.94;;;13.61;100.00
23229;BME280;11783;50.350;6.576;2023-05-12T10:22:34;96150.59;;;13.66;100.00
23229;BME280;11783;50.350;6.576;2023-05-12T10:25:01;96148.47;;;13.68;100.00
23229;BME280;11783;50.350;6.576;2023-05-12T10:27:31;96157.00;;;13.65;100.00
23229;BME280;11783;50.350;6.576;2023-05-12T10:29:57;96153.31;;;13.76;100.00
23229;BME280;11783;50.350;6.576;2023-05-12T10:32:23;96149.53;;;13.72;100.00
23229;BME280;11783;50.350;6.576;2023-05-12T10:34:49;96149.31;;;13.84;100.00
23229;BME280;11783;50.350;6.576;2023-05-12T10:37:14;96142.91;;;14.00;100.00
23229;BME280;11783;50.350;6.576;2023-05-12T10:39:48;96147.44;;;14.05;100.00
23229;BME280;11783;50.350;6.576;2023-05-12T10:42:16;96147.72;;;14.18;100.00
23229;BME280;11783;50.350;6.576;2023-05-12T10:44:53;96157.88;;;14.27;100.00
23229;BME280;11783;50.350;6.576;2023-05-12T10:47:23;96151.47;;;14.33;100.00
23229;BME280;11783;50.350;6.576;2023-05-12T10:49:55;96156.00;;;14.27;100.00
23229;BME280;11783;50.350;6.576;2023-05-12T10:52:22;96153.34;;;14.32;100.00
23229;BME280;11783;50.350;6.576;2023-05-12T10:54:48;96157.63;;;14.33;100.00
23229;BME280;11783;50.350;6.576;2023-05-12T10:57:15;96154.94;;;14.28;100.00
23229;BME280;11783;50.350;6.576;2023-05-12T10:59:48;96150.13;;;14.30;100.00
23229;BME280;11783;50.350;6.576;2023-05-12T11:02:15;96162.41;;;14.26;100.00
23229;BME280;11783;50.350;6.576;2023-05-12T11:04:51;96164.84;;;14.22;100.00
23229;BME280;11783;50.350;6.576;2023-05-12T11:07:21;96166.69;;;14.27;100.00
23229;BME280;11783;50.350;6.576;2023-05-12T11:09:47;96169.13;;;14.34;100.00
23229;BME280;11783;50.350;6.576;2023-05-12T11:12:13;96167.50;;;14.28;100.00
23229;BME280;11783;50.350;6.576;2023-05-12T11:14:41;96168.31;;;14.38;100.00
23229;BME280;11783;50.350;6.576;2023-05-12T11:17:07;96170.44;;;14.36;100.00
23229;BME280;11783;50.350;6.576;2023-05-12T11:19:34;96166.97;;;14.36;100.00
23229;BME280;11783;50.350;6.576;2023-05-12T11:22:08;96160.03;;;14.35;100.00
23229;BME280;11783;50.350;6.576;2023-05-12T11:24:34;96164.28;;;14.41;100.00
23229;BME280;11783;50.350;6.576;2023-05-12T11:27:00;96164.59;;;14.44;100.00
23229;BME280;11783;50.350;6.576;2023-05-12T11:29:25;96158.72;;;14.52;100.00
23229;BME280;11783;50.350;6.576;2023-05-12T11:31:51;96162.41;;;14.67;100.00
23229;BME280;11783;50.350;6.576;2023-05-12T11:34:24;96158.94;;;14.61;100.00
23229;BME280;11783;50.350;6.576;2023-05-12T11:36:51;96157.88;;;14.72;100.00
23229;BME280;11783;50.350;6.576;2023-05-12T11:39:27;96162.94;;;14.79;100.00
23229;BME280;11783;50.350;6.576;2023-05-12T11:42:01;96162.13;;;14.83;100.00
23229;BME280;11783;50.350;6.576;2023-05-12T11:44:27;96162.59;;;15.01;100.00
23229;BME280;11783;50.350;6.576;2023-05-12T11:47:11;96162.59;;;15.11;100.00
23229;BME280;11783;50.350;6.576;2023-05-12T11:49:51;96156.63;;;15.29;100.00
23229;BME280;11783;50.350;6.576;2023-05-12T11:52:19;96162.44;;;15.47;100.00
23229;BME280;11783;50.350;6.576;2023-05-12T11:54:58;96164.28;;;15.51;100.00
23229;BME280;11783;50.350;6.576;2023-05-12T11:57:31;96170.69;;;15.55;100.00
23229;BME280;11783;50.350;6.576;2023-05-12T12:00:03;96174.19;;;15.56;100.00
23229;BME280;11783;50.350;6.576;2023-05-12T12:02:29;96168.81;;;15.61;98.97
23229;BME280;11783;50.350;6.576;2023-05-12T12:04:55;96171.19;;;15.72;96.82
23229;BME280;11783;50.350;6.576;2023-05-12T12:07:36;96171.41;;;15.76;94.40
23229;BME280;11783;50.350;6.576;2023-05-12T12:10:16;96172.13;;;15.92;99.14
23229;BME280;11783;50.350;6.576;2023-05-12T12:12:42;96181.00;;;15.87;99.84
23229;BME280;11783;50.350;6.576;2023-05-12T12:15:09;96184.44;;;15.93;99.80
23229;BME280;11783;50.350;6.576;2023-05-12T12:17:34;96181.25;;;15.91;99.52
23229;BME280;11783;50.350;6.576;2023-05-12T12:20:00;96181.72;;;15.98;95.52
23229;BME280;11783;50.350;6.576;2023-05-12T12:22:25;96190.56;;;16.03;97.39
23229;BME280;11783;50.350;6.576;2023-05-12T12:24:51;96193.44;;;16.12;96.09
23229;BME280;11783;50.350;6.576;2023-05-12T12:27:16;96183.13;;;16.29;100.00
23229;BME280;11783;50.350;6.576;2023-05-12T12:29:42;96189.00;;;16.31;92.06
23229;BME280;11783;50.350;6.576;2023-05-12T12:32:07;96188.81;;;16.23;93.25
23229;BME280;11783;50.350;6.576;2023-05-12T12:34:33;96195.53;;;16.20;91.62
23229;BME280;11783;50.350;6.576;2023-05-12T12:36:58;96188.88;;;16.18;93.40
23229;BME280;11783;50.350;6.576;2023-05-12T12:39:24;96201.19;;;16.19;91.05
23229;BME280;11783;50.350;6.576;2023-05-12T12:41:49;96213.47;;;16.25;95.25
23229;BME280;11783;50.350;6.576;2023-05-12T12:44:14;96210.38;;;16.08;93.75
23229;BME280;11783;50.350;6.576;2023-05-12T12:46:40;96210.72;;;15.91;91.05
23229;BME280;11783;50.350;6.576;2023-05-12T12:49:05;96212.13;;;15.83;91.01
23229;BME280;11783;50.350;6.576;2023-05-12T12:51:30;96227.16;;;15.74;92.84
23229;BME280;11783;50.350;6.576;2023-05-12T12:53:56;96229.06;;;15.68;93.28